createdAt,value
2018-01-02T00:01:12.000Z,38.702
2018-01-02T00:11:12.000Z,38.59
2018-01-02T00:21:12.000Z,38.706
2018-01-02T00:31:12.000Z,38.52
2018-01-02T00:41:12.000Z,38.698
2018-01-02T00:51:12.000Z,38.953
2018-01-02T01:01:12.000Z,38.94
2018-01-02T01:11:12.000Z,38.979
2018-01-02T01:21:12.000Z,38.815
2018-01-02T01:31:12.000Z,38.974
2018-01-02T01:41:12.000Z,38.993
2018-01-02T01:51:12.000Z,38.99
2018-01-02T02:01:12.000Z,38.879
2018-01-02T02:11:12.000Z,38.963
2018-01-02T02:21:12.000Z,39.036
2018-01-02T02:31:12.000Z,39.129
2018-01-02T02:41:12.000Z,39.063
2018-01-02T02:51:12.000Z,39.039
2018-01-02T03:01:12.000Z,39.218
2018-01-02T03:11:12.000Z,39.228
2018-01-02T03:21:13.000Z,39.333
2018-01-02T03:31:13.000Z,39.169
2018-01-02T03:41:13.000Z,39.22
2018-01-02T03:51:13.000Z,39.24
2018-01-02T04:01:13.000Z,39.366
2018-01-02T04:11:13.000Z,39.428
2018-01-02T04:21:13.000Z,39.276
2018-01-02T04:31:13.000Z,39.424
2018-01-02T04:41:13.000Z,39.347
2018-01-02T04:51:13.000Z,39.601
2018-01-02T05:01:13.000Z,39.418
2018-01-02T05:11:13.000Z,39.17
2018-01-02T05:21:13.000Z,39.019
2018-01-02T05:31:13.000Z,39.083
2018-01-02T05:41:13.000Z,38.889
2018-01-02T05:51:13.000Z,38.911
2018-01-02T06:01:13.000Z,38.823
2018-01-02T06:11:15.000Z,38.706
2018-01-02T06:21:13.000Z,38.609
2018-01-02T06:31:13.000Z,38.566
2018-01-02T06:41:15.000Z,38.447
2018-01-02T06:51:13.000Z,38.437
2018-01-02T07:01:13.000Z,38.2
2018-01-02T07:11:13.000Z,38.017
2018-01-02T07:21:13.000Z,37.834
2018-01-02T07:31:13.000Z,37.653
2018-01-02T07:41:13.000Z,37.62
2018-01-02T07:51:13.000Z,37.491
2018-01-02T08:01:13.000Z,37.469
2018-01-02T08:11:13.000Z,37.566
2018-01-02T08:21:13.000Z,37.147
2018-01-02T08:31:13.000Z,36.75
2018-01-02T08:41:13.000Z,36.697
2018-01-02T08:51:13.000Z,36.75
2018-01-02T09:01:13.000Z,36.836
2018-01-02T09:11:13.000Z,36.525
2018-01-02T09:21:13.000Z,35.708
2018-01-02T09:31:13.000Z,36.214
2018-01-02T09:41:13.000Z,37.411
2018-01-02T09:51:13.000Z,37.352
2018-01-02T10:01:13.000Z,37.372
2018-01-02T10:11:13.000Z,37.118
2018-01-02T10:21:13.000Z,37.221
2018-01-02T10:31:13.000Z,37.12
2018-01-02T10:41:13.000Z,37.352
2018-01-02T10:51:13.000Z,37.178
2018-01-02T11:01:13.000Z,37.288
2018-01-02T11:11:13.000Z,37.354
2018-01-02T11:21:13.000Z,37.345
2018-01-02T11:31:14.000Z,37.128
2018-01-02T11:41:13.000Z,37.509
2018-01-02T11:51:14.000Z,37.403
2018-01-02T12:01:14.000Z,37.177
2018-01-02T12:11:14.000Z,37.117
2018-01-02T12:21:14.000Z,37.088
2018-01-02T12:31:14.000Z,37.024
2018-01-02T12:41:14.000Z,37.19
2018-01-02T12:51:14.000Z,37.083
2018-01-02T13:01:14.000Z,37.042
2018-01-02T13:11:14.000Z,37.295
2018-01-02T13:21:14.000Z,37.233
2018-01-02T13:31:14.000Z,37.269
2018-01-02T13:41:14.000Z,37.467
2018-01-02T13:51:14.000Z,37.784
2018-01-02T14:01:14.000Z,37.676
2018-01-02T14:11:14.000Z,37.593
2018-01-02T14:21:14.000Z,37.755
2018-01-02T14:31:14.000Z,37.667
2018-01-02T14:41:14.000Z,37.818
2018-01-02T14:51:14.000Z,37.528
2018-01-02T15:01:15.000Z,37.635
2018-01-02T15:11:15.000Z,37.733
2018-01-02T15:21:14.000Z,37.461
2018-01-02T15:31:14.000Z,38.027
2018-01-02T15:41:14.000Z,37.981
2018-01-02T15:51:16.000Z,38.177
2018-01-02T16:01:14.000Z,38.126
2018-01-02T16:11:16.000Z,37.738
2018-01-02T16:21:14.000Z,38.58
2018-01-02T16:31:14.000Z,37.955
2018-01-02T16:41:14.000Z,38.492
2018-01-02T16:51:14.000Z,38.115
2018-01-02T17:01:14.000Z,38.395
2018-01-02T17:11:14.000Z,38.352
2018-01-02T17:21:14.000Z,38.76
2018-01-02T17:41:14.000Z,37.797
2018-01-02T17:51:14.000Z,37.816
2018-01-02T18:01:14.000Z,37.468
2018-01-02T18:11:14.000Z,36.915
2018-01-02T18:21:14.000Z,37.096
2018-01-02T18:31:14.000Z,36.663
2018-01-02T18:41:15.000Z,36.833
2018-01-02T18:51:14.000Z,36.496
2018-01-02T19:01:14.000Z,36.505
2018-01-02T19:11:14.000Z,36.805
2018-01-02T19:21:14.000Z,36.362
2018-01-02T19:31:14.000Z,36.478
2018-01-02T19:41:15.000Z,36.757
2018-01-02T19:51:15.000Z,36.499
2018-01-02T20:01:15.000Z,36.638
2018-01-02T20:11:15.000Z,36.455
2018-01-02T20:21:15.000Z,36.756
2018-01-02T20:31:15.000Z,36.303
2018-01-02T20:51:15.000Z,36.485
2018-01-02T21:01:15.000Z,36.527
2018-01-02T21:11:15.000Z,36.57
2018-01-02T21:21:15.000Z,36.677
2018-01-02T21:31:15.000Z,36.829
2018-01-02T21:41:15.000Z,36.818
2018-01-02T21:51:15.000Z,37.207
2018-01-02T22:01:15.000Z,36.754
2018-01-02T22:11:15.000Z,37.556
2018-01-02T22:21:15.000Z,37.732
2018-01-02T22:31:15.000Z,37.514
2018-01-02T22:41:15.000Z,37.156
2018-01-02T22:51:15.000Z,37.517
2018-01-02T23:11:15.000Z,37.748
2018-01-02T23:21:15.000Z,37.582
2018-01-02T23:31:15.000Z,37.504
2018-01-02T23:41:15.000Z,37.683
2018-01-02T23:51:15.000Z,37.766
